Time;durP1;ratioP1;P1;durP2;ratioP2;P2;SDS_P1;SDS_P2;PMS_P1;PMS_P2;Temp;Humidity;BMP_temperature;BMP_pressure;BME280_temperature;BME280_humidity;BME280_pressure;Samples;Min_cycle;Max_cycle;Signal;HPM_P1;HPM_P2
2024/01/07 00:00:06;;;;;;;;;;;3.60;53.10;;;1.99;61.44;101449.41;12245979;19;19919;-85
2024/01/07 00:04:07;;;;;;;;;;;3.70;53.60;;;1.85;61.35;101428.94;12246624;19;19910;-85
2024/01/07 00:08:09;;;;;;;;;;;3.70;52.20;;;1.92;61.26;101447.78;12242858;19;20365;-85
2024/01/07 00:12:10;;;;;;;;;;;3.80;52.20;;;1.80;61.55;101433.25;12246138;19;19903;-85
2024/01/07 00:16:12;;;;;;;;;;;3.80;53.10;;;1.81;61.26;101432.41;12239920;19;19929;-85
2024/01/07 00:20:13;;;;;;;;;;;3.60;51.50;;;1.62;61.08;101426.53;12248304;19;19934;-84
2024/01/07 00:24:14;;;;;;;;;;;3.60;51.80;;;1.58;61.20;101419.69;12245269;19;19933;-85
2024/01/07 00:28:16;;;;;;;;;;;3.60;51.60;;;1.84;61.40;101459.84;12240408;19;19923;-85
2024/01/07 00:32:18;;;;;;;;;;;3.60;53.00;;;1.64;61.33;101424.78;12245225;19;19949;-84
2024/01/07 00:36:20;;;;;;;;;;;3.60;53.60;;;1.86;61.03;101476.13;12242865;19;19922;-85
2024/01/07 00:40:21;;;;;;;;;;;3.50;52.50;;;1.83;61.30;101465.84;12245081;19;19919;-85
2024/01/07 00:44:22;;;;;;;;;;;3.60;53.30;;;1.83;61.20;101471.00;12245544;19;19932;-85
2024/01/07 00:48:24;;;;;;;;;;;3.60;52.20;;;1.88;61.30;101495.00;12241193;19;19919;-85
2024/01/07 00:52:26;;;;;;;;;;;3.50;51.40;;;1.68;61.09;101475.41;12244733;19;19933;-85
2024/01/07 00:56:28;;;;;;;;;;;3.50;52.00;;;1.84;61.06;101494.19;12241898;19;19914;-84
2024/01/07 01:00:29;;;;;;;;;;;3.80;52.90;;;1.79;61.31;101495.94;12245310;19;19931;-85
2024/01/07 01:04:31;;;;;;;;;;;3.50;50.60;;;1.73;60.91;101494.25;12243762;19;19915;-85
2024/01/07 01:08:33;;;;;;;;;;;3.50;51.10;;;1.70;60.97;101495.97;12244919;19;19922;-85
2024/01/07 01:12:34;;;;;;;;;;;3.50;51.40;;;1.64;61.09;101496.00;12255359;19;19907;-85
2024/01/07 01:16:36;;;;;;;;;;;3.50;51.40;;;1.72;60.80;101517.41;12253636;19;20317;-85
2024/01/07 01:20:37;;;;;;;;;;;3.50;51.60;;;1.67;60.82;101517.44;12255498;19;20251;-84
2024/01/07 01:24:39;;;;;;;;;;;3.40;51.40;;;1.51;60.74;101510.66;12253645;19;19915;-85
2024/01/07 01:28:40;;;;;;;;;;;3.70;51.10;;;1.26;60.71;101477.34;12248412;19;19922;-85
2024/01/07 01:32:42;;;;;;;;;;;3.40;52.40;;;1.41;60.65;101519.31;12250236;19;19934;-84
2024/01/07 01:36:43;;;;;;;;;;;3.30;48.80;;;1.51;60.84;101555.28;12250883;19;19926;-85
2024/01/07 01:40:52;;;;;;;;;;;3.60;49.50;;;1.18;60.52;101511.69;12252084;19;19925;-85
2024/01/07 01:44:56;;;;;;;;;;;3.20;50.90;;;1.42;60.55;101559.63;12250720;19;19982;-84
2024/01/07 01:48:58;;;;;;;;;;;3.20;50.20;;;1.31;60.51;101554.50;12251677;19;19970;-84
2024/01/07 01:53:00;;;;;;;;;;;3.10;49.50;;;1.30;60.61;101569.09;12252137;19;19918;-84
2024/01/07 01:57:02;;;;;;;;;;;3.30;50.80;;;1.25;60.46;101573.41;12249456;19;19999;-84
2024/01/07 02:01:03;;;;;;;;;;;3.00;51.40;;;1.21;60.52;101574.25;12252830;19;19933;-85
2024/01/07 02:05:05;;;;;;;;;;;3.00;50.90;;;1.18;60.66;101573.41;12246884;19;20411;-84
2024/01/07 02:09:06;;;;;;;;;;;3.00;51.50;;;1.21;60.69;101573.41;12250631;19;19919;-84
2024/01/07 02:13:08;;;;;;;;;;;3.00;52.20;;;1.04;60.43;101571.72;12251920;19;19934;-84
2024/01/07 02:17:09;;;;;;;;;;;2.90;50.00;;;1.02;60.44;101570.03;12247969;19;19976;-85
2024/01/07 02:21:15;;;;;;;;;;;3.10;49.40;;;0.66;60.40;101522.97;12248450;19;19988;-84
2024/01/07 02:25:17;;;;;;;;;;;2.80;49.50;;;1.01;60.30;101596.59;12250558;19;19922;-85
2024/01/07 02:29:18;;;;;;;;;;;3.10;51.70;;;0.96;60.20;101588.03;12249296;19;19938;-85
2024/01/07 02:33:19;;;;;;;;;;;2.70;49.10;;;0.89;60.19;101587.19;12250241;19;19915;-85
2024/01/07 02:37:21;;;;;;;;;;;2.70;51.10;;;0.90;60.28;101598.34;12249036;19;19918;-85
2024/01/07 02:41:25;;;;;;;;;;;2.70;51.10;;;0.50;60.29;101528.97;12250230;19;19939;-84
2024/01/07 02:45:26;;;;;;;;;;;2.90;50.60;;;0.80;60.15;101590.63;12248378;19;19926;-84
2024/01/07 02:49:28;;;;;;;;;;;2.60;49.90;;;0.78;60.26;101594.91;12248888;19;19999;-84
2024/01/07 02:53:29;;;;;;;;;;;2.60;50.00;;;0.59;60.21;101575.22;12250589;19;19922;-85
2024/01/07 02:57:31;;;;;;;;;;;2.50;49.80;;;0.68;60.25;101607.78;12247454;19;19918;-84
2024/01/07 03:01:39;;;;;;;;;;;2.50;50.80;;;0.36;60.27;101559.81;12251106;19;20440;-84
2024/01/07 03:05:41;;;;;;;;;;;2.50;50.00;;;0.65;60.26;101624.06;12247822;19;20337;-84
2024/01/07 03:09:42;;;;;;;;;;;2.40;50.70;;;0.63;60.09;101620.63;12248145;19;19938;-84
2024/01/07 03:13:44;;;;;;;;;;;2.40;49.50;;;0.48;60.03;101605.19;12249070;19;19919;-84
2024/01/07 03:17:46;;;;;;;;;;;2.30;50.60;;;0.21;60.17;101573.47;12245975;19;19918;-85
2024/01/07 03:21:48;;;;;;;;;;;2.30;51.30;;;0.41;60.10;101612.91;12247773;19;20325;-84
2024/01/07 03:25:50;;;;;;;;;;;2.50;51.50;;;0.37;60.22;101603.47;12245698;19;20344;-84
2024/01/07 03:29:51;;;;;;;;;;;2.50;50.80;;;0.42;60.19;101616.31;12243814;19;20391;-84
2024/01/07 03:33:53;;;;;;;;;;;2.30;51.60;;;0.46;60.21;101635.16;12247214;19;19927;-84
2024/01/07 03:37:54;;;;;;;;;;;2.40;50.60;;;0.43;60.20;101648.84;12244459;19;19920;-84
2024/01/07 03:41:55;;;;;;;;;;;2.20;50.60;;;0.18;60.00;101612.84;12247329;19;19931;-84
2024/01/07 03:45:57;;;;;;;;;;;2.20;49.60;;;0.22;60.12;101636.84;12246176;19;19923;-84
2024/01/07 03:49:58;;;;;;;;;;;2.10;49.70;;;0.21;59.92;101638.53;12245248;19;19926;-85
2024/01/07 03:54:00;;;;;;;;;;;2.00;49.40;;;0.11;60.19;101635.94;12246696;19;19911;-84
2024/01/07 03:58:01;;;;;;;;;;;2.20;50.50;;;0.12;59.89;101653.09;12244849;19;19929;-85
2024/01/07 04:02:03;;;;;;;;;;;2.00;50.00;;;0.15;59.97;101647.97;12245578;19;19974;-85
2024/01/07 04:06:07;;;;;;;;;;;1.90;50.60;;;-0.21;59.93;101613.63;12245207;19;19931;-84
2024/01/07 04:10:09;;;;;;;;;;;2.10;49.80;;;0.09;59.89;101676.19;12246037;19;19915;-84
2024/01/07 04:14:13;;;;;;;;;;;1.90;50.20;;;0.11;60.08;101705.28;12242296;19;19918;-84
2024/01/07 04:18:15;;;;;;;;;;;1.90;50.70;;;-0.02;59.97;101673.59;12242006;19;19925;-84
2024/01/07 04:22:16;;;;;;;;;;;1.90;51.40;;;-0.07;59.75;101675.28;12242902;19;19911;-84
2024/01/07 04:26:17;;;;;;;;;;;1.90;50.90;;;0.06;59.81;101704.44;12243003;19;19935;-84
2024/01/07 04:30:19;;;;;;;;;;;1.90;52.00;;;-0.03;59.88;101692.41;12243646;19;19923;-84
2024/01/07 04:34:20;;;;;;;;;;;1.80;49.70;;;0.05;59.87;101715.53;12245120;19;19970;-84
2024/01/07 04:38:22;;;;;;;;;;;2.10;50.30;;;0.01;59.86;101708.69;12242909;19;19915;-85
2024/01/07 04:42:23;;;;;;;;;;;1.80;51.30;;;0.01;59.92;101706.97;12244596;19;19911;-85
2024/01/07 04:46:25;;;;;;;;;;;1.80;51.10;;;-0.09;59.85;101700.06;12255552;19;20268;-84
2024/01/07 04:50:26;;;;;;;;;;;1.80;50.50;;;0.01;59.77;101724.94;12254184;19;20640;-84
2024/01/07 04:54:28;;;;;;;;;;;1.80;51.30;;;-0.13;59.87;101693.22;12255467;19;19911;-84
2024/01/07 04:58:29;;;;;;;;;;;2.00;50.60;;;-0.23;59.87;101688.03;12252439;19;20325;-84
2024/01/07 05:02:30;;;;;;;;;;;1.80;50.40;;;-0.07;59.88;101717.19;12256705;19;19982;-84
2024/01/07 05:06:32;;;;;;;;;;;1.80;51.10;;;-0.17;59.83;101696.63;12254417;19;19911;-85
2024/01/07 05:10:33;;;;;;;;;;;2.00;48.40;;;-0.09;59.73;101724.03;12253220;19;19926;-84
2024/01/07 05:14:36;;;;;;;;;;;1.90;50.90;;;-0.37;59.79;101678.56;12253126;19;19926;-84
2024/01/07 05:18:38;;;;;;;;;;;1.70;49.90;;;-0.01;59.88;101734.34;12251759;19;19918;-84
2024/01/07 05:22:40;;;;;;;;;;;1.80;50.00;;;-0.07;59.74;101739.47;12254106;19;19918;-84
2024/01/07 05:26:43;;;;;;;;;;;1.70;49.70;;;-0.19;59.65;101726.53;12252916;19;19914;-84
2024/01/07 05:30:44;;;;;;;;;;;1.70;50.00;;;-0.19;59.69;101727.41;12250633;19;19936;-85
2024/01/07 05:34:46;;;;;;;;;;;1.80;51.40;;;-0.03;59.71;101766.84;12253789;19;19911;-84
2024/01/07 05:38:47;;;;;;;;;;;1.70;51.70;;;-0.16;59.78;101744.53;12250809;19;20286;-84
2024/01/07 05:42:49;;;;;;;;;;;1.80;51.40;;;-0.40;59.67;101707.63;12254733;19;19914;-84
2024/01/07 05:46:50;;;;;;;;;;;1.80;51.60;;;-0.11;59.86;101759.13;12252479;19;19979;-84
2024/01/07 05:50:52;;;;;;;;;;;1.70;51.10;;;-0.26;59.88;101753.91;12251593;19;19946;-84
2024/01/07 05:54:53;;;;;;;;;;;1.70;51.30;;;-0.10;59.89;101780.53;12252743;19;19915;-85
2024/01/07 05:58:55;;;;;;;;;;;1.70;51.50;;;-0.10;59.76;101786.50;12253788;19;19918;-84
2024/01/07 06:02:57;;;;;;;;;;;2.10;50.90;;;-0.28;59.73;101764.13;12254505;19;19931;-85
2024/01/07 06:06:58;;;;;;;;;;;1.90;51.20;;;-0.14;59.75;101786.47;12251021;19;19918;-85
2024/01/07 06:11:00;;;;;;;;;;;1.70;51.40;;;-0.11;59.81;101800.19;12250734;19;20362;-84
2024/01/07 06:15:01;;;;;;;;;;;1.60;50.40;;;-0.17;59.77;101797.56;12251525;19;20416;-85
2024/01/07 06:19:03;;;;;;;;;;;1.70;51.60;;;-0.20;59.81;101795.00;12253648;19;20327;-84
2024/01/07 06:23:05;;;;;;;;;;;1.70;50.90;;;-0.13;59.71;101825.00;12251155;19;19953;-85
2024/01/07 06:27:06;;;;;;;;;;;1.70;51.30;;;-0.16;59.74;101817.28;12248638;19;19975;-84
2024/01/07 06:31:08;;;;;;;;;;;1.70;51.80;;;-0.12;59.88;101824.13;12247786;19;19918;-84
2024/01/07 06:35:09;;;;;;;;;;;1.70;51.70;;;-0.25;59.68;101812.06;12249974;19;19926;-84
2024/01/07 06:39:10;;;;;;;;;;;1.70;51.60;;;-0.15;59.89;101825.84;12244888;19;20293;-85
2024/01/07 06:43:12;;;;;;;;;;;1.90;51.80;;;-0.17;59.83;101824.97;12249405;19;20325;-84
2024/01/07 06:47:13;;;;;;;;;;;1.70;51.80;;;-0.16;59.63;101832.69;12248566;19;20300;-84
2024/01/07 06:51:15;;;;;;;;;;;1.60;52.20;;;-0.18;59.81;101831.81;12247268;19;19939;-84
2024/01/07 06:55:16;;;;;;;;;;;1.70;51.80;;;-0.21;59.80;101829.22;12247385;19;19927;-84
2024/01/07 06:59:17;;;;;;;;;;;1.60;51.80;;;-0.41;59.77;101795.69;12249487;19;19930;-85
2024/01/07 07:03:19;;;;;;;;;;;1.70;52.00;;;-0.45;59.83;101794.81;12241682;19;20262;-84
2024/01/07 07:07:20;;;;;;;;;;;1.60;51.90;;;-0.26;59.81;101825.75;12244099;19;19918;-85
2024/01/07 07:11:21;;;;;;;;;;;1.60;51.90;;;-0.57;59.92;101778.47;12245953;19;19970;-87
2024/01/07 07:15:26;;;;;;;;;;;1.60;52.00;;;-0.14;59.94;101850.63;12246256;19;19919;-85
2024/01/07 07:19:27;;;;;;;;;;;1.60;52.20;;;-0.21;59.75;101833.50;12245892;19;19926;-86
2024/01/07 07:23:29;;;;;;;;;;;1.70;52.50;;;-0.18;59.90;101836.94;12248945;19;19914;-85
2024/01/07 07:27:30;;;;;;;;;;;1.60;52.50;;;-0.18;59.93;101843.78;12246020;19;19903;-86
2024/01/07 07:31:32;;;;;;;;;;;1.70;52.70;;;-0.02;59.87;101877.28;12245487;19;19933;-85
2024/01/07 07:35:33;;;;;;;;;;;1.80;52.80;;;-0.28;59.76;101830.88;12248133;19;19911;-84
2024/01/07 07:39:35;;;;;;;;;;;1.70;52.80;;;0.04;59.64;101878.16;12248070;19;19926;-86
2024/01/07 07:43:36;;;;;;;;;;;1.80;53.00;;;0.00;59.73;101879.88;12248245;19;19907;-85
2024/01/07 07:47:40;;;;;;;;;;;1.80;52.80;;;-0.10;59.80;101862.66;12244856;19;19922;-86
2024/01/07 07:51:43;;;;;;;;;;;1.80;52.70;;;-0.08;59.79;101868.66;12248048;19;19918;-85
2024/01/07 07:55:45;;;;;;;;;;;1.80;52.90;;;-0.15;59.69;101859.19;12247054;19;19978;-86
2024/01/07 07:59:47;;;;;;;;;;;1.80;52.90;;;-0.21;59.77;101849.75;12247720;19;20250;-85
2024/01/07 08:03:49;;;;;;;;;;;2.10;53.00;;;0.05;59.89;101900.41;12246558;19;19950;-85
2024/01/07 08:07:50;;;;;;;;;;;2.10;53.10;;;-0.01;59.78;101890.97;12246321;19;19940;-85
2024/01/07 08:11:52;;;;;;;;;;;1.90;52.70;;;-0.01;59.86;101886.69;12249398;19;20325;-88
2024/01/07 08:15:53;;;;;;;;;;;1.90;52.80;;;0.10;59.91;101906.44;12244618;19;19914;-86
2024/01/07 08:19:55;;;;;;;;;;;1.90;52.70;;;0.09;60.00;101899.59;12251911;19;19932;-86
2024/01/07 08:23:56;;;;;;;;;;;1.90;52.80;;;0.14;59.83;101906.50;12264041;19;19926;-86
2024/01/07 08:27:57;;;;;;;;;;;2.00;53.00;;;0.21;59.85;101918.50;12251709;19;19911;-85
2024/01/07 08:31:59;;;;;;;;;;;2.10;53.20;;;0.22;60.04;101914.25;12256728;19;19923;-85
2024/01/07 08:36:01;;;;;;;;;;;2.00;52.90;;;0.08;59.98;101892.72;12255345;19;19956;-86
2024/01/07 08:40:02;;;;;;;;;;;2.10;53.10;;;0.27;60.05;101914.25;12259161;19;19919;-86
2024/01/07 08:44:04;;;;;;;;;;;2.20;53.20;;;0.33;59.87;101922.03;12255816;19;19911;-86
2024/01/07 08:48:06;;;;;;;;;;;2.20;53.00;;;0.39;60.03;101915.19;12253776;19;19923;-86
2024/01/07 08:52:07;;;;;;;;;;;2.20;52.80;;;0.38;59.91;101916.06;12257440;19;20335;-86
2024/01/07 08:56:09;;;;;;;;;;;2.60;53.10;;;0.51;60.09;101921.25;12258188;19;19919;-85
2024/01/07 09:00:11;;;;;;;;;;;2.30;53.10;;;0.49;59.88;101902.38;12258754;19;19929;-86
2024/01/07 09:04:13;;;;;;;;;;;2.40;53.30;;;0.56;60.15;101911.88;12257399;19;19923;-85
2024/01/07 09:08:14;;;;;;;;;;;2.40;53.40;;;0.59;59.84;101912.72;12251794;19;19914;-86
2024/01/07 09:12:16;;;;;;;;;;;2.50;53.40;;;0.61;59.95;101915.31;12257615;19;19915;-87
2024/01/07 09:16:17;;;;;;;;;;;2.50;53.50;;;0.72;59.93;101920.50;12252302;19;19971;-87
2024/01/07 09:20:19;;;;;;;;;;;2.60;53.50;;;0.65;59.90;101925.63;12255086;19;19917;-87
2024/01/07 09:24:21;;;;;;;;;;;2.60;53.50;;;0.73;60.09;101945.34;12256139;19;19943;-87
2024/01/07 09:28:22;;;;;;;;;;;2.60;53.50;;;0.32;60.12;101882.59;12248343;19;19911;-88
2024/01/07 09:32:24;;;;;;;;;;;2.70;53.50;;;0.80;59.96;101937.69;12252428;19;19915;-86
2024/01/07 09:36:25;;;;;;;;;;;2.70;53.40;;;0.76;60.12;101920.53;12252813;19;19990;-86
2024/01/07 09:40:27;;;;;;;;;;;2.70;53.40;;;0.70;60.12;101910.22;12253141;19;19915;-86
2024/01/07 09:44:28;;;;;;;;;;;2.70;53.40;;;0.90;60.03;101927.47;12252851;19;19945;-86
2024/01/07 09:48:30;;;;;;;;;;;3.10;53.50;;;0.95;60.06;101925.78;12245707;19;20282;-85
2024/01/07 09:52:32;;;;;;;;;;;3.10;53.50;;;0.82;59.86;101909.44;12252701;19;20336;-85
2024/01/07 09:56:50;;;;;;;;;;;3.10;53.50;;;0.97;60.19;101929.19;12250797;19;19926;-85
2024/01/07 10:00:52;;;;;;;;;;;2.90;53.50;;;1.00;60.15;101924.03;12251972;19;19919;-86
2024/01/07 10:04:53;;;;;;;;;;;3.10;53.60;;;1.06;60.06;101940.38;12251533;19;20264;-86
2024/01/07 10:08:55;;;;;;;;;;;3.20;53.70;;;1.09;60.10;101927.53;12242963;19;19923;-87
2024/01/07 10:12:56;;;;;;;;;;;3.00;53.60;;;1.17;60.17;101948.13;12249842;19;19939;-89
2024/01/07 10:16:58;;;;;;;;;;;3.00;53.60;;;1.15;60.15;101948.97;12250798;19;19922;-88
2024/01/07 10:21:03;;;;;;;;;;;3.00;53.50;;;1.22;60.14;101945.59;12254173;19;19911;-86
2024/01/07 10:25:06;;;;;;;;;;;3.10;53.50;;;1.11;60.12;101930.13;12254026;19;19919;-88
2024/01/07 10:29:10;;;;;;;;;;;3.10;53.30;;;0.92;60.12;101876.88;12251091;19;19915;-87
2024/01/07 10:33:11;;;;;;;;;;;3.10;53.50;;;1.21;60.10;101926.69;12250796;19;19926;-87
2024/01/07 10:37:13;;;;;;;;;;;3.40;53.70;;;1.24;60.28;101926.72;12249079;19;19911;-88
2024/01/07 10:41:18;;;;;;;;;;;3.10;53.60;;;1.01;60.06;101884.63;12248598;19;19922;-87
2024/01/07 10:45:19;;;;;;;;;;;3.20;53.70;;;1.26;59.92;101916.44;12250449;19;19919;-89
2024/01/07 10:49:22;;;;;;;;;;;3.20;53.50;;;1.26;60.27;101911.28;12247845;19;19949;-87
2024/01/07 10:53:26;;;;;;;;;;;3.50;53.80;;;1.38;60.21;101929.34;12252780;19;19922;-87
2024/01/07 10:57:45;;;;;;;;;;;3.30;53.70;;;1.34;60.11;101904.44;12248354;19;19950;-87
2024/01/07 11:01:47;;;;;;;;;;;3.30;53.70;;;1.46;59.98;101912.19;12250586;19;19922;-87
2024/01/07 11:06:03;;;;;;;;;;;3.30;53.70;;;1.36;60.19;101900.16;12251151;19;20336;-87
2024/01/07 11:10:09;;;;;;;;;;;3.30;53.50;;;1.35;60.23;101895.00;12249073;19;19929;-86
2024/01/07 11:14:34;;;;;;;;;;;3.30;53.50;;;1.49;60.26;101908.75;12250726;19;19927;-86
2024/01/07 11:18:50;;;;;;;;;;;3.30;53.60;;;1.43;60.14;101893.28;12248746;19;19918;-86
2024/01/07 11:22:52;;;;;;;;;;;3.40;53.80;;;1.55;60.13;101903.63;12251187;19;19948;-86
2024/01/07 11:26:53;;;;;;;;;;;3.40;53.80;;;1.36;60.24;101868.44;12247575;19;19918;-85
2024/01/07 11:30:57;;;;;;;;;;;3.50;53.90;;;1.68;60.10;101920.78;12248043;19;19921;-86
2024/01/07 11:34:59;;;;;;;;;;;3.80;54.10;;;1.47;59.99;101880.44;12248136;19;20296;-86
2024/01/07 11:39:02;;;;;;;;;;;3.50;53.90;;;1.67;60.41;101907.91;12249907;19;19911;-86
2024/01/07 11:43:04;;;;;;;;;;;3.50;53.80;;;1.36;59.97;101846.13;12247560;19;19934;-86
2024/01/07 11:47:05;;;;;;;;;;;3.60;54.00;;;1.73;60.19;101898.47;12247115;19;19923;-86
2024/01/07 11:51:07;;;;;;;;;;;3.60;54.00;;;1.77;60.23;101895.03;12245311;19;20624;-86
2024/01/07 11:55:09;;;;;;;;;;;3.60;54.00;;;1.77;60.08;101892.47;12246248;19;19911;-85
2024/01/07 11:59:10;;;;;;;;;;;3.60;54.10;;;1.83;60.15;101911.34;12248017;19;20258;-88
2024/01/07 12:03:12;;;;;;;;;;;3.80;54.10;;;1.82;60.24;101912.22;12247662;19;19915;-86
2024/01/07 12:07:14;;;;;;;;;;;3.90;54.10;;;1.86;60.24;101904.47;12246685;19;19954;-87
2024/01/07 12:11:16;;;;;;;;;;;3.90;54.20;;;1.92;60.07;101916.50;12246503;19;19926;-86
2024/01/07 12:15:18;;;;;;;;;;;3.70;54.10;;;1.90;60.18;101902.78;12247273;19;19978;-86
2024/01/07 12:19:20;;;;;;;;;;;3.70;54.10;;;1.84;60.32;101895.06;12244370;19;19918;-88
2024/01/07 12:23:22;;;;;;;;;;;3.70;54.10;;;1.91;60.08;101894.19;12250597;19;19921;-86
2024/01/07 12:27:25;;;;;;;;;;;3.90;54.20;;;1.92;59.96;101904.50;12242724;19;19933;-85
2024/01/07 12:31:26;;;;;;;;;;;3.80;54.30;;;1.95;60.18;101912.22;12237312;19;19926;-87
2024/01/07 12:35:28;;;;;;;;;;;3.80;54.40;;;1.96;60.26;101919.06;12243095;19;20321;-86
2024/01/07 12:39:29;;;;;;;;;;;3.80;54.30;;;1.75;60.28;101880.44;12246824;19;19915;-86
2024/01/07 12:43:31;;;;;;;;;;;3.80;54.30;;;1.94;60.14;101914.78;12246153;19;20375;-85
2024/01/07 12:47:33;;;;;;;;;;;3.80;54.30;;;2.03;60.15;101929.41;12242968;19;19915;-85
2024/01/07 12:51:35;;;;;;;;;;;3.90;54.50;;;1.86;60.15;101901.03;12239786;19;19922;-85
2024/01/07 12:55:36;;;;;;;;;;;3.90;54.40;;;2.08;60.15;101925.94;12242994;19;19915;-86
2024/01/07 12:59:37;;;;;;;;;;;3.80;54.30;;;2.05;60.33;101912.19;12245793;19;19988;-86
2024/01/07 13:03:39;;;;;;;;;;;3.90;54.40;;;2.11;60.11;101930.25;12245823;19;19919;-86
2024/01/07 13:07:40;;;;;;;;;;;3.80;54.40;;;2.00;60.09;101904.50;12253744;19;20607;-85
2024/01/07 13:11:42;;;;;;;;;;;3.90;54.60;;;1.97;60.30;101902.78;12253283;19;19978;-85
2024/01/07 13:15:43;;;;;;;;;;;4.00;54.60;;;2.09;60.03;101914.78;12254909;19;20334;-85
2024/01/07 13:19:45;;;;;;;;;;;3.90;54.60;;;2.12;60.12;101917.34;12256656;19;19924;-85
2024/01/07 13:23:47;;;;;;;;;;;4.00;54.60;;;2.22;60.27;101923.34;12255829;19;19923;-85
2024/01/07 13:27:49;;;;;;;;;;;4.00;54.60;;;1.95;60.28;101877.88;12254042;19;19919;-85
2024/01/07 13:31:50;;;;;;;;;;;4.00;54.60;;;2.13;60.15;101893.31;12254908;19;20510;-85
2024/01/07 13:35:51;;;;;;;;;;;4.00;54.70;;;2.15;60.25;101886.41;12255226;19;19915;-85
2024/01/07 13:39:53;;;;;;;;;;;4.00;54.70;;;2.01;60.13;101895.88;12257337;19;19919;-85
2024/01/07 13:43:55;;;;;;;;;;;4.00;54.70;;;2.30;60.20;101934.50;12253493;19;19915;-86
2024/01/07 13:47:57;;;;;;;;;;;4.10;54.70;;;2.25;60.21;101933.66;12253103;19;19915;-85
2024/01/07 13:51:58;;;;;;;;;;;4.10;54.80;;;2.33;60.11;101941.38;12252656;19;19917;-85
2024/01/07 13:56:00;;;;;;;;;;;4.10;54.70;;;2.30;60.23;101931.94;12254487;19;19922;-85
2024/01/07 14:00:07;;;;;;;;;;;4.30;54.80;;;2.18;60.36;101906.16;12254654;19;19917;-85
2024/01/07 14:04:09;;;;;;;;;;;4.10;54.70;;;2.22;60.40;101915.63;12255202;19;19922;-86
2024/01/07 14:08:10;;;;;;;;;;;4.10;54.80;;;2.33;60.21;101936.22;12252283;19;19921;-86
2024/01/07 14:12:12;;;;;;;;;;;4.10;54.80;;;2.01;60.34;101884.75;12251723;19;19939;-85
2024/01/07 14:16:14;;;;;;;;;;;4.10;54.80;;;2.08;60.15;101900.19;12247114;19;19935;-85
2024/01/07 14:20:15;;;;;;;;;;;4.20;54.80;;;2.40;60.19;101958.53;12253592;19;19949;-85
2024/01/07 14:24:17;;;;;;;;;;;4.20;54.80;;;2.37;60.24;101954.25;12251194;19;19986;-86
2024/01/07 14:28:18;;;;;;;;;;;4.20;54.90;;;2.11;60.13;101913.06;12249582;19;19919;-86
2024/01/07 14:32:19;;;;;;;;;;;4.20;54.70;;;2.25;60.26;101943.97;12252499;19;20277;-85
2024/01/07 14:36:22;;;;;;;;;;;4.40;54.60;;;2.27;60.27;101941.38;12251379;19;19940;-85
2024/01/07 14:40:23;;;;;;;;;;;4.20;54.60;;;2.39;60.08;101962.84;12252627;19;19918;-85
2024/01/07 14:44:25;;;;;;;;;;;4.40;54.80;;;2.46;60.20;101978.28;12245572;19;19915;-85
2024/01/07 14:48:26;;;;;;;;;;;4.20;55.10;;;2.41;60.19;101965.44;12251932;19;19950;-85
2024/01/07 14:52:27;;;;;;;;;;;4.20;54.70;;;2.34;60.16;101959.41;12252844;19;20333;-85
2024/01/07 14:56:29;;;;;;;;;;;4.30;54.50;;;2.39;60.39;101972.28;12252700;19;19929;-85
2024/01/07 15:00:30;;;;;;;;;;;4.20;54.60;;;2.42;60.22;101973.16;12251821;19;20352;-85
2024/01/07 15:04:31;;;;;;;;;;;4.20;54.60;;;2.47;60.04;101983.47;12254297;19;19921;-85
2024/01/07 15:08:33;;;;;;;;;;;4.20;54.70;;;2.33;60.12;101965.44;12250855;19;19918;-85
2024/01/07 15:12:38;;;;;;;;;;;4.20;54.20;;;2.39;60.10;101988.63;12253900;19;19947;-86
2024/01/07 15:16:39;;;;;;;;;;;4.20;54.00;;;1.97;59.97;101925.06;12251802;19;19938;-85
2024/01/07 15:20:41;;;;;;;;;;;4.20;53.40;;;2.19;60.21;101968.03;12252919;19;19923;-85
2024/01/07 15:24:42;;;;;;;;;;;4.10;54.00;;;2.35;60.04;101993.75;12253357;19;19915;-85
2024/01/07 15:28:43;;;;;;;;;;;4.10;53.30;;;2.33;60.25;101995.50;12246620;19;19918;-86
2024/01/07 15:32:45;;;;;;;;;;;4.10;53.50;;;2.24;60.22;101978.31;12253326;19;19919;-85
2024/01/07 15:36:46;;;;;;;;;;;4.00;53.60;;;2.22;60.18;101980.91;12248696;19;19919;-86
2024/01/07 15:40:47;;;;;;;;;;;4.30;54.00;;;2.27;60.16;101983.50;12250217;19;19915;-85
2024/01/07 15:44:49;;;;;;;;;;;4.00;53.90;;;2.22;60.26;101975.75;12250296;19;19978;-86
2024/01/07 15:48:50;;;;;;;;;;;4.10;54.10;;;2.34;60.02;102004.94;12245576;19;19974;-85
2024/01/07 15:52:52;;;;;;;;;;;4.00;53.40;;;2.33;60.12;102019.56;12248285;19;19919;-85
2024/01/07 15:56:55;;;;;;;;;;;4.10;53.70;;;2.27;59.99;102016.09;12238985;19;19922;-85
2024/01/07 16:00:58;;;;;;;;;;;4.00;53.10;;;2.22;59.90;102022.13;12240902;19;19979;-85
2024/01/07 16:04:59;;;;;;;;;;;4.00;52.80;;;2.24;60.21;102022.13;12244210;19;19990;-85
2024/01/07 16:09:01;;;;;;;;;;;4.00;52.80;;;2.17;60.09;102018.69;12242104;19;20259;-85
2024/01/07 16:13:02;;;;;;;;;;;4.00;51.70;;;2.06;60.19;102020.41;12240670;19;19934;-85
2024/01/07 16:17:04;;;;;;;;;;;3.90;52.40;;;2.11;60.01;102026.44;12243287;19;19914;-85
2024/01/07 16:21:05;;;;;;;;;;;4.10;53.00;;;2.13;60.01;102034.16;12243664;19;20304;-85
2024/01/07 16:25:07;;;;;;;;;;;3.90;53.30;;;2.06;59.94;102027.28;12243488;19;20630;-85
2024/01/07 16:29:08;;;;;;;;;;;3.90;52.40;;;2.12;59.85;102048.75;12241635;19;19914;-85
2024/01/07 16:33:10;;;;;;;;;;;3.90;52.60;;;2.00;60.00;102035.88;12242786;19;19919;-85
2024/01/07 16:37:12;;;;;;;;;;;3.80;53.00;;;1.96;60.02;102045.28;12239602;19;19918;-85
2024/01/07 16:41:15;;;;;;;;;;;3.80;52.90;;;2.01;60.11;102059.91;12253412;19;19919;-85
2024/01/07 16:45:16;;;;;;;;;;;3.80;53.00;;;2.06;59.92;102060.78;12254089;19;19917;-85
2024/01/07 16:49:18;;;;;;;;;;;3.80;52.80;;;2.04;60.13;102073.66;12250728;19;19925;-85
2024/01/07 16:53:20;;;;;;;;;;;3.80;52.80;;;1.70;59.73;102027.22;12249868;19;20014;-85
2024/01/07 16:57:21;;;;;;;;;;;3.80;51.80;;;1.88;60.00;102070.16;12253801;19;19936;-85
2024/01/07 17:01:25;;;;;;;;;;;3.80;52.50;;;1.72;59.96;102040.94;12256312;19;19958;-85
2024/01/07 17:05:26;;;;;;;;;;;3.90;52.80;;;1.91;59.79;102079.63;12253315;19;19911;-85
2024/01/07 17:09:28;;;;;;;;;;;4.00;52.70;;;1.95;59.75;102102.81;12257677;19;19918;-85
2024/01/07 17:13:30;;;;;;;;;;;4.00;52.60;;;1.90;59.83;102091.66;12259310;19;20329;-85
2024/01/07 17:17:31;;;;;;;;;;;3.70;52.90;;;1.82;59.81;102085.63;12255406;19;19911;-85
2024/01/07 17:21:32;;;;;;;;;;;3.80;52.60;;;1.89;60.01;102107.97;12257772;19;19920;-85
2024/01/07 17:25:34;;;;;;;;;;;3.60;52.50;;;1.75;59.91;102084.72;12256801;19;19935;-85
2024/01/07 17:29:35;;;;;;;;;;;3.80;52.20;;;1.89;59.80;102114.81;12254341;19;20276;-85
2024/01/07 17:33:39;;;;;;;;;;;3.60;52.50;;;1.95;59.86;102128.59;12256207;19;20364;-86
2024/01/07 17:37:40;;;;;;;;;;;3.70;52.90;;;1.63;60.03;102068.38;12252571;19;20334;-86
2024/01/07 17:41:42;;;;;;;;;;;3.70;52.80;;;1.95;60.02;102132.88;12259685;19;19914;-87
2024/01/07 17:45:43;;;;;;;;;;;3.70;53.00;;;1.93;59.68;102132.88;12254944;19;19918;-86
2024/01/07 17:49:45;;;;;;;;;;;3.70;52.70;;;1.93;59.85;102137.16;12254699;19;20312;-86
2024/01/07 17:53:47;;;;;;;;;;;3.90;51.80;;;1.49;59.69;102079.50;12257528;19;19919;-86
2024/01/07 17:57:48;;;;;;;;;;;3.90;51.90;;;1.89;59.74;102156.03;12252392;19;19945;-87
2024/01/07 18:01:50;;;;;;;;;;;3.60;52.80;;;1.75;60.02;102133.66;12252487;19;20516;-87
2024/01/07 18:05:54;;;;;;;;;;;3.80;52.80;;;1.85;59.94;102146.56;12258653;19;19921;-87
2024/01/07 18:09:55;;;;;;;;;;;3.60;53.10;;;1.79;59.68;102141.41;12249451;19;19918;-86
2024/01/07 18:13:57;;;;;;;;;;;3.60;52.60;;;1.77;59.83;102144.81;12247115;19;19911;-86
2024/01/07 18:18:02;;;;;;;;;;;3.70;52.90;;;1.65;59.94;102108.75;12251365;19;20314;-86
2024/01/07 18:22:07;;;;;;;;;;;3.60;53.50;;;1.88;59.89;102154.31;12246766;19;21396;-87
2024/01/07 18:26:10;;;;;;;;;;;3.70;53.30;;;1.82;59.84;102134.53;12249414;19;19919;-87
2024/01/07 18:30:12;;;;;;;;;;;3.60;53.20;;;1.92;59.82;102156.91;12250518;19;19938;-87